MSC weather

Falcon Field
Mesa, Arizona, United States

Public forecast

Using degrees Fahrenheit for public forecast. Weather courtesy of forecast.io.

Current aviation weather report (METAR) for Falcon Field

Retrieved 2019/11/19 10:54 UTC (49 minutes ago):

KFFZ 191054Z AUTO 05006KT 10SM CLR 16/M03 A2988 RMK AO2 SLP099 T01611028

Closest aviation forecast (TAF) to Falcon Field

Closest forecast is Phoenix-Mesa-Gateway Airport, 9.9 nm (18.3 km) SSE. Retrieved 2019/11/19 06:22 UTC (5 hours ago):

TAF KIWA 190520Z 1906/2006 11004KT P6SM OVC250 FM191200 12006KT P6SM BKN100 OVC200 FM192000 20015G23KT P6SM VCSH SCT060 OVC090 FM200100 14010KT P6SM SHRA SCT040 OVC060 FM200500 15010KT P6SM VCSH BKN040 OVC060 AMD LTD TO CLD VIS AND WIND TIL 191200